createdAt,value
2018-10-09T00:01:56.156Z,58.00
2018-10-09T00:04:23.704Z,56.17
2018-10-09T00:06:51.277Z,54.73
2018-10-09T00:09:18.825Z,56.83
2018-10-09T00:11:46.401Z,59.47
2018-10-09T00:14:13.935Z,54.93
2018-10-09T00:16:41.460Z,55.07
2018-10-09T00:19:08.954Z,56.07
2018-10-09T00:21:36.484Z,54.60
2018-10-09T00:24:03.979Z,53.10
2018-10-09T00:26:31.502Z,53.03
2018-10-09T00:28:59.041Z,54.13
2018-10-09T00:31:26.629Z,53.73
2018-10-09T00:33:54.146Z,54.17
2018-10-09T00:36:21.695Z,56.60
2018-10-09T00:38:49.226Z,53.43
2018-10-09T00:41:16.762Z,54.93
2018-10-09T00:43:44.295Z,54.00
2018-10-09T00:46:11.905Z,55.50
2018-10-09T00:48:39.423Z,55.50
2018-10-09T00:51:07.004Z,46.93
2018-10-09T00:53:34.813Z,51.63
2018-10-09T00:56:02.431Z,53.43
2018-10-09T00:58:29.960Z,53.30
2018-10-09T01:00:57.633Z,55.87
2018-10-09T01:03:25.183Z,55.63
2018-10-09T01:05:52.757Z,50.83
2018-10-09T01:08:20.313Z,55.80
2018-10-09T01:10:47.944Z,53.13
2018-10-09T01:13:15.518Z,53.43
2018-10-09T01:15:43.089Z,50.53
2018-10-09T01:18:10.590Z,53.63
2018-10-09T01:20:38.233Z,54.23
2018-10-09T01:23:06.436Z,53.37
2018-10-09T01:25:34.962Z,58.00
2018-10-09T01:28:02.640Z,54.33
2018-10-09T01:30:30.731Z,52.90
2018-10-09T01:32:58.343Z,55.23
2018-10-09T01:35:25.888Z,48.53
2018-10-09T01:37:53.644Z,53.30
2018-10-09T01:40:21.176Z,53.63
2018-10-09T01:42:48.736Z,58.00
2018-10-09T01:45:16.260Z,55.67
2018-10-09T01:47:43.817Z,52.30
2018-10-09T01:50:11.413Z,52.63
2018-10-09T01:52:38.919Z,53.50
2018-10-09T01:55:06.780Z,50.80
2018-10-09T01:57:34.412Z,52.00
2018-10-09T02:00:01.905Z,53.80
2018-10-09T02:02:29.486Z,54.77
2018-10-09T02:04:57.092Z,55.73
2018-10-09T02:07:24.627Z,54.20
2018-10-09T02:09:52.158Z,54.93
2018-10-09T02:12:19.704Z,53.93
2018-10-09T02:14:47.229Z,54.63
2018-10-09T02:17:14.849Z,58.17
2018-10-09T02:19:42.393Z,51.40
2018-10-09T02:22:09.907Z,54.87
2018-10-09T02:24:37.425Z,53.27
2018-10-09T02:27:05.361Z,54.60
2018-10-09T02:29:32.873Z,54.33
2018-10-09T02:32:00.443Z,48.37
2018-10-09T02:34:27.974Z,52.60
2018-10-09T02:36:55.511Z,50.07
2018-10-09T02:39:23.015Z,47.13
2018-10-09T02:41:50.781Z,52.10
2018-10-09T02:44:18.282Z,53.63
2018-10-09T02:46:45.843Z,48.57
2018-10-09T02:49:13.376Z,50.60
2018-10-09T02:51:40.936Z,49.40
2018-10-09T02:54:08.482Z,53.37
2018-10-09T02:56:35.988Z,49.60
2018-10-09T02:59:03.584Z,49.87
2018-10-09T03:01:31.101Z,51.07
2018-10-09T03:03:58.613Z,49.30
2018-10-09T03:06:26.147Z,50.87
2018-10-09T03:08:53.662Z,48.87
2018-10-09T03:11:21.184Z,49.93
2018-10-09T03:13:48.724Z,49.80
2018-10-09T03:16:16.456Z,52.47
2018-10-09T03:18:43.950Z,51.77
2018-10-09T03:21:11.478Z,48.73
2018-10-09T03:23:38.968Z,50.13
2018-10-09T03:26:06.624Z,51.47
2018-10-09T03:28:34.101Z,49.10
2018-10-09T03:31:01.707Z,49.47
2018-10-09T03:33:29.228Z,52.80
2018-10-09T03:35:56.764Z,49.33
2018-10-09T03:38:24.346Z,50.60
2018-10-09T03:40:52.051Z,49.17
2018-10-09T03:43:19.557Z,51.60
2018-10-09T03:45:47.085Z,50.30
2018-10-09T03:48:14.595Z,53.60
2018-10-09T03:50:42.162Z,49.57
2018-10-09T03:53:09.662Z,50.90
2018-10-09T03:55:37.201Z,49.87
2018-10-09T03:58:04.772Z,50.70
2018-10-09T04:00:32.313Z,49.87
2018-10-09T04:02:59.799Z,54.50
2018-10-09T04:05:27.374Z,49.83
2018-10-09T04:07:54.905Z,51.03
2018-10-09T04:10:22.464Z,46.70
2018-10-09T04:12:50.091Z,49.40
2018-10-09T04:15:17.652Z,51.17
2018-10-09T04:17:45.203Z,50.97
2018-10-09T04:20:12.751Z,50.20
2018-10-09T04:22:40.352Z,48.13
2018-10-09T04:25:07.889Z,48.27
2018-10-09T04:27:35.497Z,48.20
2018-10-09T04:30:03.106Z,49.10
2018-10-09T04:32:30.674Z,46.57
2018-10-09T04:34:58.176Z,48.50
2018-10-09T04:37:25.735Z,46.50
2018-10-09T04:39:53.251Z,46.80
2018-10-09T04:42:20.758Z,45.87
2018-10-09T04:44:48.268Z,50.90
2018-10-09T04:47:15.786Z,51.00
2018-10-09T04:49:43.360Z,47.97
2018-10-09T04:52:10.907Z,48.90
2018-10-09T04:54:38.473Z,47.70
2018-10-09T04:57:06.036Z,50.07
2018-10-09T04:59:33.811Z,60.63
2018-10-09T05:02:01.373Z,65.07
2018-10-09T05:04:28.929Z,70.93
2018-10-09T05:06:56.453Z,64.10
2018-10-09T05:09:23.985Z,66.73
2018-10-09T05:11:51.509Z,73.63
2018-10-09T05:14:19.096Z,73.33
2018-10-09T05:16:46.709Z,75.70
2018-10-09T05:19:14.226Z,73.50
2018-10-09T05:21:41.745Z,73.13
2018-10-09T05:24:09.279Z,78.43
2018-10-09T05:26:36.860Z,79.00
2018-10-09T05:29:04.485Z,69.33
2018-10-09T05:31:32.267Z,69.53
2018-10-09T05:33:59.729Z,74.43
2018-10-09T05:36:27.239Z,67.70
2018-10-09T05:38:54.773Z,64.80
2018-10-09T05:41:22.322Z,68.10
2018-10-09T05:43:49.826Z,65.20
2018-10-09T05:46:17.373Z,68.63
2018-10-09T05:48:44.886Z,65.40
2018-10-09T05:51:12.441Z,65.63
2018-10-09T05:53:39.930Z,57.50
2018-10-09T05:56:07.510Z,65.67
2018-10-09T05:58:35.060Z,64.70
2018-10-09T06:01:02.637Z,60.00
2018-10-09T06:03:30.222Z,54.20
2018-10-09T06:05:57.796Z,54.73
2018-10-09T06:08:25.328Z,62.43
2018-10-09T06:10:52.927Z,55.10
2018-10-09T06:13:20.442Z,59.43
2018-10-09T06:15:47.971Z,52.17
2018-10-09T06:18:15.526Z,60.87
2018-10-09T06:20:43.090Z,54.20
2018-10-09T06:23:10.655Z,56.97
2018-10-09T06:25:38.186Z,53.93
2018-10-09T06:28:06.261Z,58.40
2018-10-09T06:30:34.125Z,55.90
2018-10-09T06:33:01.780Z,61.40
2018-10-09T06:35:29.374Z,53.03
2018-10-09T06:37:57.020Z,58.10
2018-10-09T06:40:24.639Z,60.50
2018-10-09T06:42:52.314Z,58.40
2018-10-09T06:45:19.812Z,58.23
2018-10-09T06:47:47.462Z,59.10
2018-10-09T06:50:14.963Z,57.10
2018-10-09T06:52:42.522Z,59.53
2018-10-09T06:55:10.224Z,56.63
2018-10-09T06:57:37.892Z,58.63
2018-10-09T07:00:05.808Z,74.20
2018-10-09T07:02:33.366Z,61.20
2018-10-09T07:05:01.034Z,59.77
2018-10-09T07:07:28.643Z,57.93
2018-10-09T07:09:56.186Z,57.83
2018-10-09T07:12:24.584Z,55.80
2018-10-09T07:14:52.122Z,62.60
2018-10-09T07:17:19.752Z,63.37
2018-10-09T07:19:47.320Z,59.27
2018-10-09T07:22:14.892Z,56.47
2018-10-09T07:24:42.429Z,57.60
2018-10-09T07:27:09.971Z,55.43
2018-10-09T07:29:37.566Z,57.10
2018-10-09T07:32:05.210Z,51.33
2018-10-09T07:34:32.745Z,52.50
2018-10-09T07:37:00.356Z,49.37
2018-10-09T07:39:27.878Z,53.17
2018-10-09T07:58:51.983Z,49.67
2018-10-09T08:01:19.833Z,46.37
2018-10-09T08:03:47.569Z,50.57
2018-10-09T08:06:15.157Z,47.27
2018-10-09T08:08:42.745Z,45.83
2018-10-09T08:11:10.541Z,43.13
2018-10-09T08:13:38.194Z,47.37
2018-10-09T08:16:06.006Z,45.67
2018-10-09T08:18:33.967Z,46.43
2018-10-09T08:21:01.555Z,44.33
2018-10-09T08:23:29.124Z,48.17
2018-10-09T08:25:56.665Z,41.57
2018-10-09T08:28:24.331Z,42.63
2018-10-09T08:30:52.099Z,40.27
2018-10-09T08:33:19.649Z,42.83
2018-10-09T08:35:47.220Z,39.50
2018-10-09T08:38:14.813Z,40.50
2018-10-09T08:40:42.374Z,40.77
2018-10-09T08:43:09.965Z,41.50
2018-10-09T08:45:37.524Z,40.00
2018-10-09T08:48:05.309Z,41.70
2018-10-09T08:50:32.954Z,41.53
2018-10-09T08:53:00.716Z,39.67
2018-10-09T08:55:28.341Z,40.10
2018-10-09T08:57:55.933Z,39.83
2018-10-09T09:00:23.486Z,39.23
2018-10-09T09:02:51.977Z,38.90
2018-10-09T09:05:19.579Z,38.97
2018-10-09T09:07:47.131Z,40.03
2018-10-09T09:10:14.689Z,36.70
2018-10-09T09:12:42.272Z,37.87
2018-10-09T09:15:09.874Z,35.27
2018-10-09T09:17:37.463Z,35.43
2018-10-09T09:20:05.142Z,35.40
2018-10-09T09:22:32.754Z,36.83
2018-10-09T09:25:00.288Z,36.17
2018-10-09T09:27:27.898Z,35.93
2018-10-09T09:29:55.477Z,35.23
2018-10-09T09:32:23.080Z,39.53
2018-10-09T09:34:50.672Z,36.77
2018-10-09T09:37:18.236Z,36.57
2018-10-09T09:39:45.833Z,39.83
2018-10-09T09:42:13.360Z,39.77
2018-10-09T09:44:40.930Z,37.97
2018-10-09T09:47:08.498Z,39.23
2018-10-09T09:49:36.180Z,39.63
2018-10-09T09:52:03.882Z,39.87
2018-10-09T09:54:31.408Z,41.07
2018-10-09T09:56:59.011Z,36.67
2018-10-09T09:59:26.582Z,39.40
2018-10-09T10:01:54.210Z,39.97
2018-10-09T10:04:21.749Z,41.53
2018-10-09T10:06:49.260Z,41.60
2018-10-09T10:09:16.893Z,41.50
2018-10-09T10:11:44.483Z,39.93
2018-10-09T10:14:11.993Z,40.60
2018-10-09T10:16:39.563Z,42.03
2018-10-09T10:19:07.647Z,39.20
2018-10-09T10:21:35.205Z,42.03
2018-10-09T10:24:02.828Z,39.70
2018-10-09T10:26:30.482Z,41.97
2018-10-09T10:28:58.038Z,40.70
2018-10-09T10:31:25.608Z,38.20
2018-10-09T10:33:53.170Z,36.00
2018-10-09T10:36:20.719Z,38.17
2018-10-09T10:38:48.421Z,39.70
2018-10-09T10:41:15.973Z,35.93
2018-10-09T10:43:43.531Z,35.30
2018-10-09T10:46:11.190Z,37.70
2018-10-09T10:48:49.913Z,36.37
2018-10-09T10:51:17.500Z,36.33
2018-10-09T10:53:45.067Z,37.00
2018-10-09T10:56:12.620Z,38.57
2018-10-09T10:58:40.228Z,37.33
2018-10-09T11:01:07.822Z,40.90
2018-10-09T11:03:35.375Z,37.60
2018-10-09T11:06:02.932Z,37.70
2018-10-09T11:08:30.567Z,36.87
2018-10-09T11:10:58.100Z,37.57
2018-10-09T11:13:25.729Z,38.07
2018-10-09T11:15:53.334Z,38.07
2018-10-09T11:18:20.968Z,38.30
2018-10-09T11:20:48.619Z,37.33
2018-10-09T11:23:16.303Z,35.60
2018-10-09T11:25:43.859Z,36.07
2018-10-09T11:28:11.430Z,35.73
2018-10-09T11:30:38.956Z,36.43
2018-10-09T11:33:06.524Z,35.03
2018-10-09T11:35:34.104Z,34.80
2018-10-09T11:38:01.588Z,37.50
2018-10-09T11:40:29.190Z,37.10
2018-10-09T11:42:56.827Z,37.37
2018-10-09T11:45:24.319Z,36.50
2018-10-09T11:47:51.918Z,34.10
2018-10-09T11:50:19.469Z,35.87
2018-10-09T11:52:46.990Z,34.87
2018-10-09T11:55:14.787Z,31.70
2018-10-09T11:57:42.372Z,35.17
2018-10-09T12:00:09.918Z,33.73
2018-10-09T12:02:37.487Z,34.03
2018-10-09T12:05:05.144Z,36.30
2018-10-09T12:07:32.766Z,35.93
2018-10-09T12:10:00.271Z,39.10
2018-10-09T12:12:27.836Z,37.63
2018-10-09T12:14:55.343Z,36.27
2018-10-09T12:17:23.574Z,35.93
2018-10-09T12:19:51.117Z,36.10
2018-10-09T12:22:18.730Z,39.83
2018-10-09T12:24:46.257Z,39.43
2018-10-09T12:27:13.959Z,39.73
2018-10-09T12:29:41.455Z,39.50
2018-10-09T12:32:09.006Z,40.17
2018-10-09T12:34:36.548Z,39.27
2018-10-09T12:37:04.199Z,37.77
2018-10-09T12:39:31.903Z,38.77
2018-10-09T12:41:59.603Z,40.13
2018-10-09T12:44:27.305Z,38.73
2018-10-09T12:46:54.801Z,38.60
2018-10-09T12:49:22.336Z,38.33
2018-10-09T12:51:49.907Z,38.07
2018-10-09T12:54:17.477Z,37.20
2018-10-09T12:56:45.075Z,37.00
2018-10-09T12:59:12.711Z,38.57
2018-10-09T13:01:40.237Z,37.57
2018-10-09T13:04:07.751Z,41.53
2018-10-09T13:06:35.320Z,39.37
2018-10-09T13:09:03.071Z,37.23
2018-10-09T13:11:30.616Z,38.50
2018-10-09T13:13:58.282Z,36.10
2018-10-09T13:16:25.891Z,36.80
2018-10-09T13:18:53.392Z,39.30
2018-10-09T13:21:21.151Z,36.53
2018-10-09T13:23:48.604Z,38.07
2018-10-09T13:26:16.127Z,40.97
2018-10-09T13:28:43.695Z,37.73
2018-10-09T13:31:11.288Z,35.27
2018-10-09T13:33:38.799Z,37.03
2018-10-09T13:36:06.384Z,38.10
2018-10-09T13:38:33.933Z,35.13
2018-10-09T13:41:01.506Z,34.10
2018-10-09T13:43:29.135Z,35.20
2018-10-09T13:45:56.648Z,34.87
2018-10-09T13:48:24.257Z,33.33
2018-10-09T13:50:51.937Z,34.47
2018-10-09T13:53:19.459Z,32.73
2018-10-09T13:55:46.973Z,32.10
2018-10-09T13:58:14.572Z,31.90
2018-10-09T14:00:42.128Z,34.60
2018-10-09T14:03:09.794Z,32.90
2018-10-09T14:05:37.274Z,35.03
2018-10-09T14:08:04.933Z,34.70
2018-10-09T14:10:32.530Z,35.70
2018-10-09T14:13:00.134Z,33.80
2018-10-09T14:15:27.726Z,35.10
2018-10-09T14:17:55.386Z,35.80
2018-10-09T14:20:22.983Z,36.93
2018-10-09T14:22:50.603Z,36.03
2018-10-09T14:25:18.194Z,36.63
2018-10-09T14:27:45.843Z,35.50
2018-10-09T14:30:13.440Z,36.30
2018-10-09T14:32:41.035Z,35.60
2018-10-09T14:35:08.624Z,33.20
2018-10-09T14:37:36.192Z,34.33
2018-10-09T14:40:03.959Z,34.50
2018-10-09T14:42:31.541Z,36.60
2018-10-09T14:44:59.153Z,37.27
2018-10-09T14:47:26.761Z,38.07
2018-10-09T14:49:54.313Z,37.47
2018-10-09T14:52:21.891Z,38.67
2018-10-09T14:54:49.481Z,38.20
2018-10-09T14:57:17.083Z,37.67
2018-10-09T14:59:44.638Z,35.17
2018-10-09T15:02:12.222Z,35.93
2018-10-09T15:04:39.814Z,36.53
2018-10-09T15:07:07.511Z,36.67
2018-10-09T15:09:35.209Z,37.63
2018-10-09T15:12:02.820Z,37.30
2018-10-09T15:14:30.397Z,37.73
2018-10-09T15:16:57.993Z,34.90
2018-10-09T15:19:25.618Z,38.87
2018-10-09T15:21:53.232Z,39.00
2018-10-09T15:24:20.890Z,36.90
2018-10-09T15:26:48.457Z,37.30
2018-10-09T15:29:16.096Z,37.03
2018-10-09T15:31:43.658Z,38.87
2018-10-09T15:34:11.311Z,36.70
2018-10-09T15:36:38.888Z,38.53
2018-10-09T15:39:08.520Z,36.73
2018-10-09T15:41:36.114Z,37.17
2018-10-09T15:44:03.790Z,39.40
2018-10-09T15:46:31.349Z,39.83
2018-10-09T15:48:58.867Z,36.40
2018-10-09T15:51:26.417Z,35.63
2018-10-09T15:53:53.997Z,37.43
2018-10-09T15:56:21.539Z,37.80
2018-10-09T15:58:49.110Z,37.73
2018-10-09T16:01:16.663Z,39.10
2018-10-09T16:03:44.789Z,37.73
2018-10-09T16:06:12.370Z,38.63
2018-10-09T16:08:39.969Z,37.10
2018-10-09T16:11:07.575Z,39.10
2018-10-09T16:13:35.293Z,39.83
2018-10-09T16:16:02.891Z,42.40
2018-10-09T16:18:30.458Z,38.73
2018-10-09T16:20:58.051Z,40.13
2018-10-09T16:23:25.684Z,37.50
2018-10-09T16:25:53.264Z,40.20
2018-10-09T16:28:20.902Z,39.80
2018-10-09T16:30:48.462Z,35.53
2018-10-09T16:33:16.056Z,38.27
2018-10-09T16:35:43.713Z,39.97
2018-10-09T16:38:11.315Z,36.90
2018-10-09T16:40:38.962Z,41.27
2018-10-09T16:43:06.560Z,43.20
2018-10-09T16:45:34.163Z,39.00
2018-10-09T16:48:01.770Z,39.67
2018-10-09T16:50:29.338Z,38.03
2018-10-09T16:52:56.943Z,39.03
2018-10-09T16:55:24.577Z,37.57
2018-10-09T16:57:52.335Z,43.87
2018-10-09T17:00:20.072Z,37.60
2018-10-09T17:02:47.663Z,41.20
2018-10-09T17:05:15.481Z,40.20
2018-10-09T17:07:43.093Z,40.90
2018-10-09T17:10:10.691Z,42.30
2018-10-09T17:12:38.338Z,38.50
2018-10-09T17:15:06.038Z,40.40
2018-10-09T17:17:33.647Z,39.17
2018-10-09T17:20:01.321Z,42.53
2018-10-09T17:22:28.912Z,38.57
2018-10-09T17:24:56.438Z,41.47
2018-10-09T17:27:24.124Z,39.33
2018-10-09T17:29:51.788Z,38.60
2018-10-09T17:32:19.382Z,41.20
2018-10-09T17:34:47.058Z,40.20
2018-10-09T17:37:14.678Z,42.23
2018-10-09T17:39:42.257Z,40.27
2018-10-09T17:42:09.980Z,40.40
2018-10-09T17:44:37.624Z,40.37
2018-10-09T17:47:08.261Z,40.60
2018-10-09T17:49:37.172Z,39.90
2018-10-09T17:52:04.969Z,44.47
2018-10-09T17:54:32.583Z,42.43
2018-10-09T17:57:00.248Z,43.67
2018-10-09T17:59:27.948Z,43.03
2018-10-09T18:01:55.608Z,43.33
2018-10-09T18:04:23.242Z,42.53
2018-10-09T18:06:51.011Z,40.80
2018-10-09T18:09:18.676Z,43.03
2018-10-09T18:11:46.497Z,40.47
2018-10-09T18:14:14.208Z,43.80
2018-10-09T18:16:41.853Z,39.67
2018-10-09T18:19:09.505Z,43.37
2018-10-09T18:21:37.164Z,42.27
2018-10-09T18:24:05.147Z,43.13
2018-10-09T18:26:32.802Z,43.10
2018-10-09T18:29:00.525Z,41.13
2018-10-09T18:31:28.268Z,40.60
2018-10-09T18:33:56.001Z,43.37
2018-10-09T18:36:23.744Z,44.27
2018-10-09T18:38:51.415Z,43.97
2018-10-09T18:41:19.256Z,42.37
2018-10-09T18:43:46.786Z,43.67
2018-10-09T18:46:14.458Z,42.83
2018-10-09T18:48:42.204Z,43.33
2018-10-09T18:51:09.836Z,45.73
2018-10-09T18:53:37.546Z,45.70
2018-10-09T18:56:05.307Z,42.30
2018-10-09T18:58:33.016Z,40.83
2018-10-09T19:01:00.671Z,44.20
2018-10-09T19:03:28.331Z,43.53
2018-10-09T19:05:56.084Z,44.80
2018-10-09T19:08:23.798Z,41.77
2018-10-09T19:10:51.560Z,42.70
2018-10-09T19:13:19.620Z,43.93
2018-10-09T19:15:47.252Z,41.97
2018-10-09T19:18:14.962Z,39.50
2018-10-09T19:20:42.619Z,41.43
2018-10-09T19:23:10.329Z,38.33
2018-10-09T19:25:38.004Z,39.07
2018-10-09T19:28:06.427Z,38.67
2018-10-09T19:30:34.093Z,38.33
2018-10-09T19:33:01.712Z,36.20
2018-10-09T19:35:29.611Z,41.50
2018-10-09T19:37:57.258Z,43.03
2018-10-09T19:40:24.965Z,38.63
2018-10-09T19:42:52.638Z,35.13
2018-10-09T19:45:20.386Z,37.10
2018-10-09T19:47:48.132Z,36.93
2018-10-09T19:50:16.034Z,34.27
2018-10-09T19:52:43.671Z,38.67
2018-10-09T19:55:11.451Z,31.67
2018-10-09T19:57:39.171Z,33.50
2018-10-09T20:00:06.931Z,34.10
2018-10-09T20:02:34.581Z,31.83
2018-10-09T20:05:02.310Z,30.30
2018-10-09T20:07:29.966Z,34.83
2018-10-09T20:09:57.561Z,33.43
2018-10-09T20:12:25.276Z,37.57
2018-10-09T20:14:52.988Z,35.70
2018-10-09T20:17:20.566Z,34.97
2018-10-09T20:19:48.127Z,32.10
2018-10-09T20:22:15.750Z,37.33
2018-10-09T20:24:43.503Z,36.43
2018-10-09T20:27:11.060Z,35.33
2018-10-09T20:29:38.688Z,34.40
2018-10-09T20:32:06.353Z,34.93
2018-10-09T20:34:33.997Z,36.20
2018-10-09T20:37:01.601Z,29.37
2018-10-09T20:39:29.179Z,29.30
2018-10-09T20:41:56.817Z,25.17
2018-10-09T20:44:24.423Z,21.07
2018-10-09T20:46:52.022Z,24.37
2018-10-09T20:49:19.702Z,25.53
2018-10-09T20:51:47.363Z,25.67
2018-10-09T20:54:14.990Z,25.20
2018-10-09T20:56:42.655Z,25.00
2018-10-09T20:59:10.295Z,22.03
2018-10-09T21:01:37.905Z,22.73
2018-10-09T21:04:05.573Z,23.10
2018-10-09T21:06:33.229Z,22.93
2018-10-09T21:09:00.803Z,21.00
2018-10-09T21:11:28.406Z,21.90
2018-10-09T21:13:56.029Z,19.30
2018-10-09T21:16:23.573Z,19.17
2018-10-09T21:18:51.169Z,22.70
2018-10-09T21:21:18.771Z,20.63
2018-10-09T21:23:46.332Z,21.40
2018-10-09T21:26:13.944Z,21.63
2018-10-09T21:28:41.549Z,19.77
2018-10-09T21:31:09.100Z,20.87
2018-10-09T21:33:36.676Z,19.90
2018-10-09T21:36:04.228Z,20.30
2018-10-09T21:38:31.827Z,17.50
2018-10-09T21:40:59.371Z,18.87
2018-10-09T21:43:26.930Z,18.73
2018-10-09T21:45:55.979Z,16.63
2018-10-09T21:48:23.610Z,18.70
2018-10-09T21:50:51.151Z,21.37
2018-10-09T21:53:18.719Z,24.17
2018-10-09T21:55:46.289Z,25.70
2018-10-09T21:58:13.824Z,25.83
2018-10-09T22:00:47.139Z,29.77
2018-10-09T22:03:14.716Z,26.87
2018-10-09T22:05:42.451Z,28.23
2018-10-09T22:08:10.147Z,29.43
2018-10-09T22:10:37.858Z,28.67
2018-10-09T22:13:05.763Z,22.03
2018-10-09T22:15:33.327Z,22.13
2018-10-09T22:18:00.874Z,19.77
2018-10-09T22:20:28.424Z,21.80
2018-10-09T22:22:55.983Z,17.42
2018-10-09T22:25:23.543Z,18.27
2018-10-09T22:27:51.140Z,17.98
2018-10-09T22:30:18.730Z,19.30
2018-10-09T22:32:46.253Z,19.45
2018-10-09T22:35:13.862Z,20.10
2018-10-09T22:37:41.344Z,18.73
2018-10-09T22:40:08.942Z,19.73
2018-10-09T22:42:36.508Z,20.97
2018-10-09T22:45:04.114Z,20.23
2018-10-09T22:47:31.661Z,20.72
2018-10-09T22:49:59.257Z,20.70
2018-10-09T22:52:26.808Z,20.88
2018-10-09T22:54:54.370Z,19.90
2018-10-09T22:57:21.973Z,21.65
2018-10-09T22:59:49.532Z,20.37
2018-10-09T23:02:17.245Z,22.87
2018-10-09T23:04:44.820Z,23.15
2018-10-09T23:07:12.410Z,26.23
2018-10-09T23:09:39.970Z,26.40
2018-10-09T23:12:07.550Z,23.32
2018-10-09T23:14:35.074Z,23.12
2018-10-09T23:17:02.660Z,24.02
2018-10-09T23:19:30.220Z,22.07
2018-10-09T23:21:57.776Z,20.00
2018-10-09T23:24:25.348Z,19.62
2018-10-09T23:26:53.130Z,21.10
2018-10-09T23:29:20.745Z,19.95
2018-10-09T23:31:48.356Z,18.67
2018-10-09T23:34:15.912Z,20.40
2018-10-09T23:36:43.467Z,23.83
2018-10-09T23:39:11.028Z,26.80
2018-10-09T23:41:38.576Z,29.85
2018-10-09T23:44:06.198Z,30.08
2018-10-09T23:46:33.810Z,30.37
2018-10-09T23:49:01.364Z,27.42
2018-10-09T23:51:28.894Z,33.88
2018-10-09T23:53:56.453Z,31.25
2018-10-09T23:56:24.008Z,29.05
2018-10-09T23:58:51.566Z,30.35
